sensor_id;sensor_type;location;lat;lon;timestamp;P1;durP1;ratioP1;P2;durP2;ratioP2
61112;SDS011;47184;57.998;56.184;2022-07-01T17:12:09;18.67;;;3.33;;
61112;SDS011;47184;57.998;56.184;2022-07-01T17:14:37;21.88;;;3.60;;
61112;SDS011;47184;57.998;56.184;2022-07-01T17:17:15;46.55;;;6.55;;
61112;SDS011;47184;57.998;56.184;2022-07-01T17:19:43;13.45;;;2.80;;
61112;SDS011;47184;57.998;56.184;2022-07-01T17:22:57;47.33;;;5.72;;
61112;SDS011;47184;57.998;56.184;2022-07-01T17:25:08;28.55;;;3.67;;
61112;SDS011;47184;57.998;56.184;2022-07-01T17:30:46;20.63;;;3.95;;
61112;SDS011;47184;57.998;56.184;2022-07-01T17:33:16;11.60;;;3.40;;
61112;SDS011;47184;57.998;56.184;2022-07-01T17:35:47;37.90;;;4.63;;
61112;SDS011;47184;57.998;56.184;2022-07-01T17:38:18;26.52;;;3.40;;
61112;SDS011;47184;57.998;56.184;2022-07-01T17:40:46;46.72;;;5.40;;
61112;SDS011;47184;57.998;56.184;2022-07-01T17:43:17;21.35;;;3.58;;
61112;SDS011;47184;57.998;56.184;2022-07-01T17:45:46;19.63;;;3.50;;
61112;SDS011;47184;57.998;56.184;2022-07-01T17:48:16;24.02;;;4.40;;
61112;SDS011;47184;57.998;56.184;2022-07-01T17:50:46;34.92;;;5.32;;
61112;SDS011;47184;57.998;56.184;2022-07-01T17:53:14;33.78;;;4.10;;
61112;SDS011;47184;57.998;56.184;2022-07-01T17:55:42;65.15;;;7.10;;
61112;SDS011;47184;57.998;56.184;2022-07-01T17:58:09;48.78;;;4.95;;
61112;SDS011;47184;57.998;56.184;2022-07-01T18:00:36;32.90;;;4.60;;
61112;SDS011;47184;57.998;56.184;2022-07-01T18:03:03;26.65;;;5.00;;
61112;SDS011;47184;57.998;56.184;2022-07-01T18:05:31;26.67;;;4.35;;
61112;SDS011;47184;57.998;56.184;2022-07-01T18:07:59;24.88;;;4.38;;
61112;SDS011;47184;57.998;56.184;2022-07-01T18:10:28;31.27;;;4.32;;
61112;SDS011;47184;57.998;56.184;2022-07-01T18:13:02;11.23;;;3.88;;
61112;SDS011;47184;57.998;56.184;2022-07-01T18:15:29;19.55;;;4.20;;
61112;SDS011;47184;57.998;56.184;2022-07-01T18:18:01;69.13;;;9.05;;
61112;SDS011;47184;57.998;56.184;2022-07-01T18:23:14;25.05;;;5.03;;
61112;SDS011;47184;57.998;56.184;2022-07-01T18:25:47;18.77;;;4.57;;
61112;SDS011;47184;57.998;56.184;2022-07-01T18:28:15;29.90;;;5.50;;
61112;SDS011;47184;57.998;56.184;2022-07-01T18:30:47;27.98;;;4.18;;
61112;SDS011;47184;57.998;56.184;2022-07-01T18:33:16;11.68;;;3.83;;
61112;SDS011;47184;57.998;56.184;2022-07-01T18:35:47;20.27;;;4.00;;
61112;SDS011;47184;57.998;56.184;2022-07-01T18:38:15;17.42;;;4.45;;
61112;SDS011;47184;57.998;56.184;2022-07-01T18:40:42;19.38;;;3.88;;
61112;SDS011;47184;57.998;56.184;2022-07-01T18:43:08;9.88;;;3.40;;
61112;SDS011;47184;57.998;56.184;2022-07-01T18:45:35;19.85;;;4.13;;
61112;SDS011;47184;57.998;56.184;2022-07-01T18:48:03;29.83;;;4.30;;
61112;SDS011;47184;57.998;56.184;2022-07-01T18:50:30;21.25;;;4.00;;
61112;SDS011;47184;57.998;56.184;2022-07-01T18:52:57;19.20;;;3.65;;
61112;SDS011;47184;57.998;56.184;2022-07-01T18:55:24;12.95;;;3.63;;
61112;SDS011;47184;57.998;56.184;2022-07-01T18:57:51;28.48;;;4.22;;
61112;SDS011;47184;57.998;56.184;2022-07-01T19:00:19;15.68;;;3.90;;
61112;SDS011;47184;57.998;56.184;2022-07-01T19:02:46;22.67;;;6.53;;
61112;SDS011;47184;57.998;56.184;2022-07-01T19:05:13;14.95;;;4.10;;
61112;SDS011;47184;57.998;56.184;2022-07-01T19:07:40;12.30;;;4.07;;
61112;SDS011;47184;57.998;56.184;2022-07-01T19:10:07;38.75;;;5.40;;
61112;SDS011;47184;57.998;56.184;2022-07-01T19:12:34;12.25;;;4.07;;
61112;SDS011;47184;57.998;56.184;2022-07-01T19:15:01;16.02;;;4.38;;
61112;SDS011;47184;57.998;56.184;2022-07-01T19:17:28;26.40;;;4.78;;
61112;SDS011;47184;57.998;56.184;2022-07-01T19:19:54;11.52;;;4.10;;
61112;SDS011;47184;57.998;56.184;2022-07-01T19:22:20;11.82;;;4.30;;
61112;SDS011;47184;57.998;56.184;2022-07-01T19:24:46;26.15;;;4.53;;
61112;SDS011;47184;57.998;56.184;2022-07-01T19:27:12;29.55;;;5.13;;
61112;SDS011;47184;57.998;56.184;2022-07-01T19:29:38;16.35;;;4.05;;
61112;SDS011;47184;57.998;56.184;2022-07-01T19:32:04;13.23;;;4.72;;
61112;SDS011;47184;57.998;56.184;2022-07-01T19:34:30;24.67;;;4.97;;
61112;SDS011;47184;57.998;56.184;2022-07-01T19:36:57;25.45;;;5.50;;
61112;SDS011;47184;57.998;56.184;2022-07-01T19:39:23;22.17;;;4.82;;
61112;SDS011;47184;57.998;56.184;2022-07-01T19:41:49;21.00;;;4.97;;
61112;SDS011;47184;57.998;56.184;2022-07-01T19:44:15;31.48;;;5.47;;
61112;SDS011;47184;57.998;56.184;2022-07-01T19:46:41;21.73;;;5.07;;
61112;SDS011;47184;57.998;56.184;2022-07-01T19:49:07;17.70;;;5.47;;
61112;SDS011;47184;57.998;56.184;2022-07-01T19:51:34;16.75;;;5.28;;
61112;SDS011;47184;57.998;56.184;2022-07-01T19:54:01;31.63;;;5.45;;
61112;SDS011;47184;57.998;56.184;2022-07-01T19:56:28;24.98;;;5.10;;
61112;SDS011;47184;57.998;56.184;2022-07-01T19:58:54;25.08;;;5.70;;
61112;SDS011;47184;57.998;56.184;2022-07-01T20:01:21;18.73;;;5.75;;
61112;SDS011;47184;57.998;56.184;2022-07-01T20:03:48;22.50;;;5.60;;
61112;SDS011;47184;57.998;56.184;2022-07-01T20:06:15;20.63;;;4.72;;
61112;SDS011;47184;57.998;56.184;2022-07-01T20:08:41;18.63;;;5.22;;
61112;SDS011;47184;57.998;56.184;2022-07-01T20:11:07;21.35;;;5.32;;
61112;SDS011;47184;57.998;56.184;2022-07-01T20:13:34;16.30;;;5.32;;
61112;SDS011;47184;57.998;56.184;2022-07-01T20:16:00;19.55;;;5.70;;
61112;SDS011;47184;57.998;56.184;2022-07-01T20:18:27;24.80;;;5.45;;
61112;SDS011;47184;57.998;56.184;2022-07-01T20:20:54;23.50;;;6.88;;
61112;SDS011;47184;57.998;56.184;2022-07-01T20:23:20;25.88;;;6.05;;
61112;SDS011;47184;57.998;56.184;2022-07-01T20:25:46;21.17;;;5.43;;
61112;SDS011;47184;57.998;56.184;2022-07-01T20:28:13;22.75;;;6.10;;
61112;SDS011;47184;57.998;56.184;2022-07-01T20:30:41;17.42;;;6.10;;
61112;SDS011;47184;57.998;56.184;2022-07-01T20:33:08;21.13;;;6.93;;
61112;SDS011;47184;57.998;56.184;2022-07-01T20:35:34;28.88;;;8.00;;
61112;SDS011;47184;57.998;56.184;2022-07-01T20:38:00;22.83;;;6.78;;
61112;SDS011;47184;57.998;56.184;2022-07-01T20:40:26;22.00;;;6.97;;
61112;SDS011;47184;57.998;56.184;2022-07-01T20:42:52;29.73;;;6.70;;
61112;SDS011;47184;57.998;56.184;2022-07-01T20:45:18;22.08;;;6.50;;
61112;SDS011;47184;57.998;56.184;2022-07-01T20:47:45;15.25;;;6.80;;
61112;SDS011;47184;57.998;56.184;2022-07-01T20:50:12;19.05;;;5.68;;
61112;SDS011;47184;57.998;56.184;2022-07-01T20:52:39;11.05;;;5.28;;
61112;SDS011;47184;57.998;56.184;2022-07-01T20:55:05;16.10;;;6.32;;
61112;SDS011;47184;57.998;56.184;2022-07-01T20:57:32;27.35;;;6.60;;
61112;SDS011;47184;57.998;56.184;2022-07-01T20:59:58;22.88;;;6.32;;
61112;SDS011;47184;57.998;56.184;2022-07-01T21:02:25;19.77;;;6.43;;
61112;SDS011;47184;57.998;56.184;2022-07-01T21:04:54;15.27;;;6.28;;
61112;SDS011;47184;57.998;56.184;2022-07-01T21:07:20;14.25;;;7.13;;
61112;SDS011;47184;57.998;56.184;2022-07-01T21:09:52;26.33;;;6.82;;
61112;SDS011;47184;57.998;56.184;2022-07-01T21:12:18;13.95;;;6.72;;
61112;SDS011;47184;57.998;56.184;2022-07-01T21:14:45;21.85;;;7.43;;
61112;SDS011;47184;57.998;56.184;2022-07-01T21:17:11;16.98;;;6.93;;
61112;SDS011;47184;57.998;56.184;2022-07-01T21:19:37;18.42;;;7.00;;
61112;SDS011;47184;57.998;56.184;2022-07-01T21:22:03;28.25;;;8.80;;
61112;SDS011;47184;57.998;56.184;2022-07-01T21:24:30;24.40;;;8.88;;
61112;SDS011;47184;57.998;56.184;2022-07-01T21:26:56;24.00;;;8.20;;
61112;SDS011;47184;57.998;56.184;2022-07-01T21:29:22;23.52;;;8.85;;
61112;SDS011;47184;57.998;56.184;2022-07-01T21:31:48;25.30;;;8.45;;
61112;SDS011;47184;57.998;56.184;2022-07-01T21:34:14;29.73;;;10.70;;
61112;SDS011;47184;57.998;56.184;2022-07-01T21:36:41;26.08;;;8.82;;
61112;SDS011;47184;57.998;56.184;2022-07-01T21:39:07;20.20;;;7.32;;
61112;SDS011;47184;57.998;56.184;2022-07-01T21:41:35;24.60;;;7.47;;
61112;SDS011;47184;57.998;56.184;2022-07-01T21:44:03;15.82;;;7.40;;
61112;SDS011;47184;57.998;56.184;2022-07-01T21:46:31;20.60;;;7.78;;
61112;SDS011;47184;57.998;56.184;2022-07-01T21:49:00;36.55;;;10.05;;
61112;SDS011;47184;57.998;56.184;2022-07-01T21:51:26;45.47;;;13.45;;
61112;SDS011;47184;57.998;56.184;2022-07-01T21:53:54;38.22;;;11.68;;
61112;SDS011;47184;57.998;56.184;2022-07-01T21:56:21;36.92;;;11.57;;
61112;SDS011;47184;57.998;56.184;2022-07-01T21:58:49;62.47;;;14.20;;
61112;SDS011;47184;57.998;56.184;2022-07-01T22:01:18;21.80;;;10.18;;
61112;SDS011;47184;57.998;56.184;2022-07-01T22:03:45;42.95;;;10.15;;
61112;SDS011;47184;57.998;56.184;2022-07-01T22:06:12;25.42;;;9.20;;
61112;SDS011;47184;57.998;56.184;2022-07-01T22:08:47;43.35;;;9.05;;
61112;SDS011;47184;57.998;56.184;2022-07-01T22:11:15;20.92;;;8.30;;
61112;SDS011;47184;57.998;56.184;2022-07-01T22:13:43;19.67;;;7.60;;
61112;SDS011;47184;57.998;56.184;2022-07-01T22:16:17;17.60;;;7.05;;
61112;SDS011;47184;57.998;56.184;2022-07-01T22:18:44;17.67;;;7.32;;
61112;SDS011;47184;57.998;56.184;2022-07-01T22:21:13;23.80;;;7.50;;
61112;SDS011;47184;57.998;56.184;2022-07-01T22:23:42;16.50;;;7.22;;
61112;SDS011;47184;57.998;56.184;2022-07-01T22:26:09;23.58;;;7.32;;
61112;SDS011;47184;57.998;56.184;2022-07-01T22:28:36;17.83;;;7.13;;
61112;SDS011;47184;57.998;56.184;2022-07-01T22:31:06;24.70;;;6.85;;
61112;SDS011;47184;57.998;56.184;2022-07-01T22:33:35;15.38;;;7.43;;
61112;SDS011;47184;57.998;56.184;2022-07-01T22:36:04;22.15;;;7.72;;
61112;SDS011;47184;57.998;56.184;2022-07-01T22:38:32;22.95;;;7.63;;
61112;SDS011;47184;57.998;56.184;2022-07-01T22:40:59;20.52;;;7.70;;
61112;SDS011;47184;57.998;56.184;2022-07-01T22:43:26;17.55;;;7.93;;
61112;SDS011;47184;57.998;56.184;2022-07-01T22:45:55;21.20;;;7.85;;
61112;SDS011;47184;57.998;56.184;2022-07-01T22:48:57;16.20;;;7.85;;
61112;SDS011;47184;57.998;56.184;2022-07-01T22:51:50;25.55;;;7.70;;
61112;SDS011;47184;57.998;56.184;2022-07-01T22:54:21;22.83;;;7.32;;
61112;SDS011;47184;57.998;56.184;2022-07-01T22:56:55;22.73;;;7.43;;
61112;SDS011;47184;57.998;56.184;2022-07-01T22:59:24;25.63;;;7.10;;
61112;SDS011;47184;57.998;56.184;2022-07-01T23:01:55;23.75;;;7.80;;
61112;SDS011;47184;57.998;56.184;2022-07-01T23:04:24;15.65;;;7.32;;
61112;SDS011;47184;57.998;56.184;2022-07-01T23:07:08;15.80;;;7.20;;
61112;SDS011;47184;57.998;56.184;2022-07-01T23:09:56;25.63;;;6.95;;
61112;SDS011;47184;57.998;56.184;2022-07-01T23:15:32;23.48;;;7.53;;
61112;SDS011;47184;57.998;56.184;2022-07-01T23:18:21;21.08;;;7.68;;
61112;SDS011;47184;57.998;56.184;2022-07-01T23:20:49;25.40;;;7.10;;
61112;SDS011;47184;57.998;56.184;2022-07-01T23:23:16;16.50;;;7.03;;
61112;SDS011;47184;57.998;56.184;2022-07-01T23:25:48;16.38;;;7.70;;
61112;SDS011;47184;57.998;56.184;2022-07-01T23:28:17;16.73;;;7.50;;
61112;SDS011;47184;57.998;56.184;2022-07-01T23:30:44;17.50;;;7.30;;
61112;SDS011;47184;57.998;56.184;2022-07-01T23:33:12;19.58;;;7.22;;
61112;SDS011;47184;57.998;56.184;2022-07-01T23:35:39;23.80;;;7.70;;
61112;SDS011;47184;57.998;56.184;2022-07-01T23:38:08;19.98;;;7.28;;
61112;SDS011;47184;57.998;56.184;2022-07-01T23:40:36;17.95;;;7.25;;
61112;SDS011;47184;57.998;56.184;2022-07-01T23:43:03;17.00;;;7.80;;
61112;SDS011;47184;57.998;56.184;2022-07-01T23:45:30;17.30;;;7.45;;
61112;SDS011;47184;57.998;56.184;2022-07-01T23:47:56;20.92;;;7.75;;
61112;SDS011;47184;57.998;56.184;2022-07-01T23:50:23;23.17;;;7.55;;
61112;SDS011;47184;57.998;56.184;2022-07-01T23:52:49;24.08;;;7.75;;
61112;SDS011;47184;57.998;56.184;2022-07-01T23:55:15;17.83;;;7.15;;
61112;SDS011;47184;57.998;56.184;2022-07-01T23:57:41;20.27;;;7.68;;
